Map

Track Data

SID SEASON NUMBER BASIN SUBBASIN NAME ISO_TIME NATURE LAT LON WMO_WIND WMO_PRES WMO_AGENCY TRACK_TYPE DIST2LAND LANDFALL IFLAG USA_AGENCY USA_ATCF_ID USA_LAT USA_LON USA_RECORD USA_STATUS USA_WIND USA_PRES USA_SSHS USA_R34_NE USA_R34_SE USA_R34_SW USA_R34_NW USA_R50_NE USA_R50_SE USA_R50_SW USA_R50_NW USA_R64_NE USA_R64_SE USA_R64_SW USA_R64_NW USA_POCI USA_ROCI USA_RMW USA_EYE TOKYO_LAT TOKYO_LON TOKYO_GRADE TOKYO_WIND TOKYO_PRES TOKYO_R50_DIR TOKYO_R50_LONG TOKYO_R50_SHORT TOKYO_R30_DIR TOKYO_R30_LONG TOKYO_R30_SHORT TOKYO_LAND CMA_LAT CMA_LON CMA_CAT CMA_WIND CMA_PRES HKO_LAT HKO_LON HKO_CAT HKO_WIND HKO_PRES NEWDELHI_LAT NEWDELHI_LON NEWDELHI_GRADE NEWDELHI_WIND NEWDELHI_PRES NEWDELHI_CI NEWDELHI_DP NEWDELHI_POCI REUNION_LAT REUNION_LON REUNION_TYPE REUNION_WIND REUNION_PRES REUNION_TNUM REUNION_CI REUNION_RMW REUNION_R34_NE REUNION_R34_SE REUNION_R34_SW REUNION_R34_NW REUNION_R50_NE REUNION_R50_SE REUNION_R50_SW REUNION_R50_NW REUNION_R64_NE REUNION_R64_SE REUNION_R64_SW REUNION_R64_NW BOM_LAT BOM_LON BOM_TYPE BOM_WIND BOM_PRES BOM_TNUM BOM_CI BOM_RMW BOM_R34_NE BOM_R34_SE BOM_R34_SW BOM_R34_NW BOM_R50_NE BOM_R50_SE BOM_R50_SW BOM_R50_NW BOM_R64_NE BOM_R64_SE BOM_R64_SW BOM_R64_NW BOM_ROCI BOM_POCI BOM_EYE BOM_POS_METHOD BOM_PRES_METHOD NADI_LAT NADI_LON NADI_CAT NADI_WIND NADI_PRES WELLINGTON_LAT WELLINGTON_LON WELLINGTON_WIND WELLINGTON_PRES DS824_LAT DS824_LON DS824_STAGE DS824_WIND DS824_PRES TD9636_LAT TD9636_LON TD9636_STAGE TD9636_WIND TD9636_PRES TD9635_LAT TD9635_LON TD9635_WIND TD9635_PRES TD9635_ROCI NEUMANN_LAT NEUMANN_LON NEUMANN_CLASS NEUMANN_WIND NEUMANN_PRES MLC_LAT MLC_LON MLC_CLASS MLC_WIND MLC_PRES USA_GUST BOM_GUST BOM_GUST_PER REUNION_GUST REUNION_GUST_PER USA_SEAHGT USA_SEARAD_NE USA_SEARAD_SE USA_SEARAD_SW USA_SEARAD_NW STORM_SPEED STORM_DIR
1993131S04158 1993 29 SP EA ADEL 1993-05-11 06:00:00 TS -4.20000 158.100 main 324 310 O___________O_ jtwc_sh SH271993 -4.20000 158.100 15 -1 -4.20000 158.100 TC 15 4 236
1993131S04158 1993 29 SP EA ADEL 1993-05-11 09:00:00 TS -4.30001 157.950 main 310 289 P___________P_ SH271993 -4.30001 157.950 15 -1 -4.30001 157.950 TC 15 4 236
1993131S04158 1993 29 SP EA ADEL 1993-05-11 12:00:00 TS -4.40000 157.800 main 289 274 O___________O_ jtwc_sh SH271993 -4.40000 157.800 15 -1 -4.40000 157.800 TC 15 4 236
1993131S04158 1993 29 SP EA ADEL 1993-05-11 15:00:00 TS -4.50000 157.650 main 274 255 P___________P_ SH271993 -4.50000 157.650 15 -1 -4.50000 157.650 TC 15 4 236
1993131S04158 1993 29 SP EA ADEL 1993-05-11 18:00:00 TS -4.60000 157.500 main 255 240 O___________O_ jtwc_sh SH271993 -4.60000 157.500 15 -1 -4.60000 157.500 TC 15 4 236
1993131S04158 1993 29 SP EA ADEL 1993-05-11 21:00:00 TS -4.70000 157.350 main 240 223 P___________P_ SH271993 -4.70000 157.350 17 -1 -4.70000 157.350 TC 17 4 236
1993131S04158 1993 29 SP EA ADEL 1993-05-12 00:00:00 TS -4.80000 157.200 main 223 209 O___________O_ jtwc_sh SH271993 -4.80000 157.200 20 -1 -4.80000 157.200 TC 20 4 237
1993131S04158 1993 29 SP EA ADEL 1993-05-12 03:00:00 TS -4.89250 157.050 main 209 193 P___________P_ SH271993 -4.89250 157.050 20 -1 -4.89250 157.050 TC 20 4 236
1993131S04158 1993 29 SP EA ADEL 1993-05-12 06:00:00 TS -5.00000 156.900 main 193 180 O___________O_ jtwc_sh SH271993 -5.00000 156.900 20 -1 -5.00000 156.900 TC 20 4 229
1993131S04158 1993 29 SP EA ADEL 1993-05-12 09:00:00 TS -5.15000 156.750 main 180 149 P___________P_ SH271993 -5.15000 156.750 20 -1 -5.15000 156.750 TC 20 4 225
1993131S04158 1993 29 SP EA ADEL 1993-05-12 12:00:00 TS -5.30000 156.600 main 149 134 O___________O_ jtwc_sh SH271993 -5.30000 156.600 20 -1 -5.30000 156.600 TC 20 4 230
1993131S04158 1993 29 SP EA ADEL 1993-05-12 15:00:00 TS -5.40000 156.450 main 134 110 P___________P_ SH271993 -5.40000 156.450 22 -1 -5.40000 156.450 TC 22 4 236
1993131S04158 1993 29 SP EA ADEL 1993-05-12 18:00:00 TS -5.50000 156.300 main 110 94 O___________O_ jtwc_sh SH271993 -5.50000 156.300 25 -1 -5.50000 156.300 TC 25 4 230
1993131S04158 1993 29 SP EA ADEL 1993-05-12 21:00:00 TS -5.63498 156.165 main 94 63 P___________P_ SH271993 -5.63498 156.165 25 -1 -5.63498 156.165 TC 25 4 225
1993131S04158 1993 29 SP EA ADEL 1993-05-13 00:00:00 TS -5.80000 156.000 main 63 31 O___________O_ jtwc_sh SH271993 -5.80000 156.000 25 -1 -5.80000 156.000 TC 25 5 229
1993131S04158 1993 29 SP EA ADEL 1993-05-13 03:00:00 TS -5.96998 155.780 main 31 0 P___________P_ SH271993 -5.96998 155.780 27 -1 -5.96998 155.780 TC 27 6 227
1993131S04158 1993 29 SP EA ADEL 1993-05-13 06:00:00 TS -6.21111 155.556 30 1001 bom main 0 0 O_____O_____O_ jtwc_sh SH271993 -6.20000 155.500 30 -1 -6.30000 156.000 30 1001 2.00000 1010 -6.20000 155.500 TC 30 7 226
1993131S04158 1993 29 SP EA ADEL 1993-05-13 09:00:00 TS -6.48351 155.247 main 0 0 P_____P_____P_ SH271993 -6.51249 155.172 32 -1 -6.36760 155.545 32 998 -6.51249 155.172 TC 32 9 228
1993131S04158 1993 29 SP EA ADEL 1993-05-13 12:00:00 TS -6.81818 154.882 35 995 bom main 47 47 O_____O_____O_ jtwc_sh SH271993 -6.90000 154.800 35 0 -6.60000 155.100 35 995 3.00000 -6.90000 154.800 TC 35 11 223
1993131S04158 1993 29 SP EA ADEL 1993-05-13 15:00:00 TS -7.26577 154.503 main 118 118 P_____P_____P_ SH271993 -7.34994 154.422 37 0 -7.09742 154.665 37 992 -7.34994 154.422 TC 37 13 225
1993131S04158 1993 29 SP EA ADEL 1993-05-13 18:00:00 TS -7.74615 153.946 40 990 bom main 196 196 O_____O_O___O_ jtwc_sh SH271993 -7.80000 154.000 40 0 -7.70000 154.200 40 990 3.00000 -7.50000 152.500 25 999 -7.80000 154.000 TC 40 14 231
1993131S04158 1993 29 SP EA ADEL 1993-05-13 21:00:00 TS -8.14777 153.394 main 267 267 P_____P_P___P_ SH271993 -8.18742 153.530 42 0 -8.26733 153.695 45 987 -7.75003 152.250 30 997 -8.18742 153.530 TC 42 13 237
1993131S04158 1993 29 SP EA ADEL 1993-05-14 00:00:00 TS -8.45333 152.827 50 985 bom main 306 258 O_____O_O___O_ jtwc_sh SH271993 -8.50000 153.000 45 0 -8.70000 153.100 50 985 3.50000 1010 -8.00000 152.000 35 995 -8.50000 153.000 TC 45 13 247
1993131S04158 1993 29 SP EA ADEL 1993-05-14 03:00:00 TS -8.63881 152.225 main 250 197 P_____P_P___P_ SH271993 -8.72250 152.407 45 0 -8.86024 152.335 52 982 -8.24998 151.750 35 995 -8.72250 152.407 TC 45 12 253
1993131S04158 1993 29 SP EA ADEL 1993-05-14 06:00:00 TS -8.80000 151.675 55 980 bom main 197 144 O_____O_O___O_ jtwc_sh SH271993 -8.90000 151.800 45 0 -8.90000 151.600 55 980 4.00000 -8.50000 151.500 35 995 -8.90000 151.800 TC 45 11 251
1993131S04158 1993 29 SP EA ADEL 1993-05-14 09:00:00 TS -8.99117 151.199 main 144 95 P_____P_P___P_ SH271993 -9.10747 151.220 45 0 -8.99231 151.082 57 977 -8.75743 151.272 37 992 -9.10747 151.220 TC 45 10 247
1993131S04158 1993 29 SP EA ADEL 1993-05-14 12:00:00 TS -9.17500 150.775 60 975 bom main 95 55 O_____O_O___O_ jtwc_sh SH271993 -9.30000 150.700 45 0 -9.10000 150.700 60 975 4.00000 -9.00000 151.000 40 990 -9.30000 150.700 TC 45 9 246
1993131S04158 1993 29 SP EA ADEL 1993-05-14 15:00:00 TS -9.34303 150.389 main 55 22 P_____P_P___P_ SH271993 -9.44991 150.262 42 0 -9.24969 150.437 62 972 -9.22260 150.593 40 990 -9.44991 150.262 TC 42 8 246
1993131S04158 1993 29 SP EA ADEL 1993-05-14 18:00:00 TS -9.50667 150.020 65 970 bom main 24 0 O_____O_O___O_ jtwc_sh SH271993 -9.60000 149.900 40 0 -9.40000 150.100 65 970 4.50000 -9.40000 150.200 40 990 -9.60000 149.900 TC 40 8 244
1993131S04158 1993 29 SP EA ADEL 1993-05-14 21:00:00 TS -9.67752 149.679 main 0 0 P_____P_P___P_ SH271993 -9.79993 149.585 40 0 -9.51308 149.488 50 977 -9.51493 149.962 40 990 -9.79993 149.585 TC 37 7 241
1993131S04158 1993 29 SP EA ADEL 1993-05-15 00:00:00 TS -9.84615 149.408 35 985 bom main 0 0 O_____O_O___O_ jtwc_sh SH271993 -10.0000 149.300 40 0 -9.60000 148.700 35 985 1012 -9.60000 149.800 40 990 -10.0000 149.300 TC 35 6 234
1993131S04158 1993 29 SP EA ADEL 1993-05-15 03:00:00 TS -10.0025 149.217 main 0 0 P_______P___P_ SH271993 -10.1575 149.007 37 0 -9.69249 149.635 40 990 -10.1575 149.007 TC 35 5 237
1993131S04158 1993 29 SP EA ADEL 1993-05-15 06:00:00 TS -10.1333 148.967 main 0 0 O_______O___O_ jtwc_sh SH271993 -10.3000 148.700 35 0 -9.80000 149.500 40 990 -10.3000 148.700 TC 35 6 237
1993131S04158 1993 29 SP EA ADEL 1993-05-15 09:00:00 TS -10.3032 148.738 main 11 11 P_______P___P_ SH271993 -10.4798 148.403 32 -1 -9.94997 149.407 37 992 -10.4798 148.403 TC 32 6 240
1993131S04158 1993 29 SP EA ADEL 1993-05-15 12:00:00 TS -10.4333 148.433 main 22 22 O_______O___O_ jtwc_sh SH271993 -10.6000 148.000 30 -1 -10.1000 149.300 35 995 -10.6000 148.000 TC 30 8 257
1993131S04158 1993 29 SP EA ADEL 1993-05-15 15:00:00 TS -10.4808 147.978 main 33 33 P_______P___P_ SH271993 -10.6175 147.410 30 -1 -10.2075 149.115 30 997 -10.6175 147.410 TC 30 11 269
1993131S04158 1993 29 SP EA ADEL 1993-05-15 18:00:00 TS -10.4455 147.300 main 55 55 O_______O___O_ jtwc_sh SH271993 -10.5000 146.700 30 -1 -10.3000 148.900 25 999 -10.5000 146.700 TC 30 15 278
1993131S04158 1993 29 SP EA ADEL 1993-05-15 21:00:00 TS -10.2875 146.505 main 111 109 P_______P___P_ SH271993 -10.2600 145.957 27 -1 -10.3975 148.695 25 1003 -10.2600 145.957 TC 27 18 286
1993131S04158 1993 29 SP EA ADEL 1993-05-16 00:00:00 TS -9.96667 145.567 main 156 133 O_______O___O_ jtwc_sh SH271993 -9.90000 145.200 25 -1 -10.5000 148.500 25 1008 -9.90000 145.200 TC 25 22 292
1993131S04158 1993 29 SP EA ADEL 1993-05-16 03:00:00 TS -9.48739 144.478 main 133 43 P___________P_ SH271993 -9.48739 144.478 25 -1 -9.48739 144.478 TC 25 20 299
1993131S04158 1993 29 SP EA ADEL 1993-05-16 06:00:00 TS -9.00000 143.800 main 43 10 O___________O_ jtwc_sh SH271993 -9.00000 143.800 25 -1 -9.00000 143.800 TC 25 16 309
1993131S04158 1993 29 SP EA ADEL 1993-05-16 09:00:00 TS -8.46265 143.182 main 11 0 P___________P_ SH271993 -8.46265 143.182 22 -1 -8.46265 143.182 TC 22 16 313
1993131S04158 1993 29 SP EA ADEL 1993-05-16 12:00:00 TS -7.90000 142.600 main 0 O___________O_ jtwc_sh SH271993 -7.90000 142.600 20 -1 -7.90000 142.600 TC 20 16 314

Digital Typhoon Data and Search

About IBTrACS Database

This database is a web-friendly format of International Best Track Archive for Climate Stewardship (IBTrACS), a global best track data archive curated by NOAA dating back to 1842.

Updated: 2021-10-08